createdAt,value
2023-01-23T00:00:35.001Z,102280.59
2023-01-23T00:05:58.867Z,102284.75
2023-01-23T00:11:23.823Z,102281.28
2023-01-23T00:16:45.647Z,102269.50
2023-01-23T00:22:07.505Z,102283.38
2023-01-23T00:27:29.622Z,102292.75
2023-01-23T00:32:51.521Z,102303.66
2023-01-23T00:38:13.429Z,102302.63
2023-01-23T00:43:35.300Z,102303.31
2023-01-23T00:48:57.180Z,102297.47
2023-01-23T00:54:19.087Z,102299.22
2023-01-23T00:59:41.099Z,102296.09
2023-01-23T01:05:02.987Z,102297.78
2023-01-23T01:10:25.108Z,102302.00
2023-01-23T01:15:51.619Z,102305.72
2023-01-23T01:21:15.638Z,102306.34
2023-01-23T01:26:37.540Z,102315.03
2023-01-23T01:31:59.434Z,102312.03
2023-01-23T01:37:21.344Z,102328.22
2023-01-23T01:42:45.607Z,102325.56
2023-01-23T01:48:07.539Z,102329.78
2023-01-23T01:53:31.686Z,102338.34
2023-01-23T01:58:54.302Z,102344.00
2023-01-23T02:04:16.172Z,102329.91
2023-01-23T02:09:38.275Z,102352.38
2023-01-23T02:15:00.682Z,102356.16
2023-01-23T02:20:25.602Z,102344.41
2023-01-23T02:25:59.880Z,102358.81
2023-01-23T02:31:23.308Z,102361.75
2023-01-23T02:36:48.200Z,102362.47
2023-01-23T02:42:10.265Z,102360.59
2023-01-23T02:47:32.144Z,102355.34
2023-01-23T02:52:54.046Z,102365.28
2023-01-23T02:58:15.916Z,102372.38
2023-01-23T03:03:37.792Z,102361.75
2023-01-23T03:08:59.601Z,102377.81
2023-01-23T03:14:22.973Z,102373.91
2023-01-23T03:19:44.878Z,102347.19
2023-01-23T03:25:06.993Z,102366.69
2023-01-23T03:30:28.835Z,102383.78
2023-01-23T03:35:50.733Z,102373.91
2023-01-23T03:41:12.587Z,102368.44
2023-01-23T03:46:34.854Z,102376.19
2023-01-23T03:51:56.676Z,102381.22
2023-01-23T03:57:18.919Z,102398.50
2023-01-23T04:02:41.224Z,102397.97
2023-01-23T04:08:03.894Z,102399.94
2023-01-23T04:13:25.748Z,102405.78
2023-01-23T04:18:47.568Z,102400.38
2023-01-23T04:24:09.374Z,102396.59
2023-01-23T04:29:31.212Z,102395.63
2023-01-23T04:34:53.053Z,102409.44
2023-01-23T04:40:14.948Z,102414.72
2023-01-23T04:45:36.832Z,102427.25
2023-01-23T04:50:58.686Z,102425.34
2023-01-23T04:56:20.556Z,102412.28
2023-01-23T05:01:43.202Z,102408.00
2023-01-23T05:07:05.273Z,102424.06
2023-01-23T05:12:27.135Z,102433.16
2023-01-23T05:17:49.546Z,102449.16
2023-01-23T05:23:11.413Z,102436.03
2023-01-23T05:28:33.422Z,102435.03
2023-01-23T05:33:55.252Z,102451.78
2023-01-23T05:39:17.187Z,102438.91
2023-01-23T05:44:39.089Z,102445.88
2023-01-23T05:50:01.221Z,102464.19
2023-01-23T05:55:23.321Z,102475.31
2023-01-23T06:00:45.183Z,102484.94
2023-01-23T06:06:07.385Z,102478.38
2023-01-23T06:11:29.256Z,102487.00
2023-01-23T06:16:51.099Z,102500.53
2023-01-23T06:22:12.956Z,102505.00
2023-01-23T06:27:34.831Z,102506.03
2023-01-23T06:32:56.875Z,102520.47
2023-01-23T06:38:18.714Z,102536.44
2023-01-23T06:43:40.617Z,102548.31
2023-01-23T06:49:05.918Z,102546.66
2023-01-23T06:54:28.051Z,102565.38
2023-01-23T06:59:50.149Z,102562.09
2023-01-23T07:05:12.007Z,102560.97
2023-01-23T07:10:34.340Z,102559.03
2023-01-23T07:15:56.258Z,102554.41
2023-01-23T07:21:18.130Z,102559.63
2023-01-23T07:26:40.126Z,102573.44
2023-01-23T07:32:02.012Z,102570.97
2023-01-23T07:37:23.897Z,102582.94
2023-01-23T07:42:45.717Z,102577.78
2023-01-23T07:48:08.288Z,102579.19
2023-01-23T07:53:30.177Z,102581.16
2023-01-23T07:58:52.153Z,102582.03
2023-01-23T08:04:14.007Z,102599.47
2023-01-23T08:09:35.909Z,102591.38
2023-01-23T08:14:57.801Z,102599.28
2023-01-23T08:20:19.950Z,102606.63
2023-01-23T08:25:41.900Z,102604.31
2023-01-23T08:31:06.988Z,102613.38
2023-01-23T08:36:28.997Z,102615.41
2023-01-23T08:41:51.208Z,102617.97
2023-01-23T08:47:13.065Z,102625.53
2023-01-23T08:52:34.896Z,102646.75
2023-01-23T08:57:56.739Z,102646.16
2023-01-23T09:03:18.573Z,102634.50
2023-01-23T09:08:40.612Z,102639.28
2023-01-23T09:14:02.533Z,102636.78
2023-01-23T09:19:24.508Z,102641.28
2023-01-23T09:24:46.352Z,102635.00
2023-01-23T09:30:08.759Z,102636.47
2023-01-23T09:35:31.013Z,102624.47
2023-01-23T09:41:00.076Z,102629.84
2023-01-23T09:46:28.775Z,102626.34
2023-01-23T09:52:06.622Z,102619.47
2023-01-23T09:57:39.140Z,102621.81
2023-01-23T10:03:06.364Z,102613.06
2023-01-23T10:08:42.719Z,102609.94
2023-01-23T10:14:23.218Z,102617.31
2023-01-23T10:20:17.540Z,102627.53
2023-01-23T10:25:40.833Z,102617.97
2023-01-23T10:31:10.527Z,102609.50
2023-01-23T10:37:02.313Z,102617.03
2023-01-23T10:42:26.871Z,102615.91
2023-01-23T10:47:54.686Z,102601.56
2023-01-23T10:53:20.326Z,102613.28
2023-01-23T10:58:42.828Z,102604.34
2023-01-23T11:04:35.510Z,102609.56
2023-01-23T11:10:23.264Z,102615.22
2023-01-23T11:15:48.528Z,102600.13
2023-01-23T11:21:22.601Z,102607.78
2023-01-23T11:26:44.679Z,102595.56
2023-01-23T11:32:13.224Z,102606.16
2023-01-23T11:37:38.987Z,102596.47
2023-01-23T11:43:00.858Z,102576.69
2023-01-23T11:48:35.368Z,102587.22
2023-01-23T11:54:20.968Z,102570.28
2023-01-23T11:59:53.319Z,102577.00
2023-01-23T12:05:33.793Z,102580.38
2023-01-23T12:11:12.412Z,102577.00
2023-01-23T12:16:36.875Z,102584.38
2023-01-23T12:22:10.586Z,102591.84
2023-01-23T12:27:42.438Z,102586.41
2023-01-23T12:33:28.263Z,102608.81
2023-01-23T12:39:38.118Z,102604.84
2023-01-23T12:45:11.877Z,102594.22
2023-01-23T12:50:50.366Z,102604.53
2023-01-23T12:56:27.163Z,102601.41
2023-01-23T13:02:07.085Z,102610.38
2023-01-23T13:07:56.003Z,102619.81
2023-01-23T13:13:19.080Z,102627.28
2023-01-23T13:18:56.066Z,102632.50
2023-01-23T13:24:44.680Z,102635.16
2023-01-23T13:30:24.466Z,102641.25
2023-01-23T13:35:49.300Z,102644.38
2023-01-23T13:41:11.154Z,102635.91
2023-01-23T14:21:18.765Z,102660.16
2023-01-23T14:26:49.337Z,102651.09
2023-01-23T14:32:33.056Z,102666.13
2023-01-23T14:37:58.901Z,102654.88
2023-01-23T14:43:23.001Z,102667.53
2023-01-23T14:48:50.919Z,102648.59
2023-01-23T14:54:22.787Z,102663.75
2023-01-23T14:59:46.739Z,102663.00
2023-01-23T15:05:10.307Z,102658.97
2023-01-23T15:10:41.292Z,102667.97
2023-01-23T15:16:06.472Z,102683.44
2023-01-23T15:21:41.017Z,102671.09
2023-01-23T15:27:06.745Z,102671.78
2023-01-23T15:32:28.908Z,102676.41
2023-01-23T15:37:52.940Z,102676.63
2023-01-23T15:43:18.581Z,102672.72
2023-01-23T15:48:40.441Z,102688.47
2023-01-23T15:54:04.264Z,102682.22
2023-01-23T15:59:27.027Z,102681.22
2023-01-23T16:04:49.554Z,102692.22
2023-01-23T16:10:22.015Z,102699.34
2023-01-23T16:15:43.861Z,102686.06
2023-01-23T16:21:06.280Z,102685.31
2023-01-23T16:26:28.817Z,102689.97
2023-01-23T16:31:50.713Z,102694.25
2023-01-23T16:37:17.635Z,102692.88
2023-01-23T16:42:41.047Z,102691.03
2023-01-23T16:48:03.064Z,102697.69
2023-01-23T16:53:31.666Z,102701.22
2023-01-23T16:58:53.516Z,102701.16
2023-01-23T17:04:18.995Z,102706.94
2023-01-23T17:09:40.957Z,102717.81
2023-01-23T17:15:03.703Z,102712.00
2023-01-23T17:20:25.595Z,102723.13
2023-01-23T17:25:59.253Z,102712.06
2023-01-23T17:31:27.519Z,102708.66
2023-01-23T17:36:50.922Z,102719.03
2023-01-23T17:42:14.283Z,102723.19
2023-01-23T17:47:36.354Z,102711.91
2023-01-23T17:52:58.222Z,102716.88
2023-01-23T17:58:20.403Z,102715.63
2023-01-23T18:03:42.251Z,102714.41
2023-01-23T18:09:04.133Z,102720.16
2023-01-23T18:14:32.088Z,102713.53
2023-01-23T18:19:54.178Z,102715.69
2023-01-23T18:25:18.052Z,102716.56
2023-01-23T18:30:56.805Z,102711.59
2023-01-23T18:36:34.171Z,102712.34
2023-01-23T18:42:14.507Z,102717.81
2023-01-23T18:47:36.926Z,102725.53
2023-01-23T18:53:24.800Z,102722.25
2023-01-23T18:59:12.096Z,102719.28
2023-01-23T19:04:41.246Z,102700.84
2023-01-23T19:10:04.878Z,102707.03
2023-01-23T19:15:32.381Z,102701.59
2023-01-23T19:21:05.117Z,102724.88
2023-01-23T19:26:39.757Z,102724.13
2023-01-23T19:32:06.298Z,102732.03
2023-01-23T19:37:28.571Z,102728.81
2023-01-23T19:42:58.656Z,102724.53
2023-01-23T19:48:27.482Z,102726.94
2023-01-23T19:53:49.349Z,102727.13
2023-01-23T19:59:11.452Z,102735.88
2023-01-23T20:04:33.371Z,102734.69
2023-01-23T20:09:55.302Z,102732.03
2023-01-23T20:15:19.567Z,102741.22
2023-01-23T20:20:41.527Z,102750.22
2023-01-23T20:26:03.603Z,102738.41
2023-01-23T20:31:25.604Z,102736.44
2023-01-23T20:36:47.462Z,102728.47
2023-01-23T20:42:10.653Z,102741.00
2023-01-23T20:47:35.992Z,102741.00
2023-01-23T20:52:57.869Z,102743.81
2023-01-23T20:58:19.724Z,102746.84
2023-01-23T21:03:42.189Z,102742.16
2023-01-23T21:09:04.193Z,102751.31
2023-01-23T21:14:26.111Z,102747.03
2023-01-23T21:19:48.105Z,102739.66
2023-01-23T21:25:09.944Z,102747.16
2023-01-23T21:30:31.912Z,102758.22
2023-01-23T21:35:54.683Z,102755.53
2023-01-23T21:41:16.996Z,102753.75
2023-01-23T21:46:38.976Z,102758.09
2023-01-23T21:52:00.913Z,102748.91
2023-01-23T21:57:23.068Z,102752.78
2023-01-23T22:02:45.189Z,102753.88
2023-01-23T22:08:07.279Z,102752.53
2023-01-23T22:13:31.957Z,102752.41
2023-01-23T22:18:53.839Z,102755.63
2023-01-23T22:24:15.969Z,102761.66
2023-01-23T22:29:37.831Z,102745.63
2023-01-23T22:34:59.829Z,102745.34
2023-01-23T22:40:21.725Z,102757.69
2023-01-23T22:45:43.581Z,102754.81
2023-01-23T22:51:08.497Z,102746.69
2023-01-23T22:56:31.489Z,102777.78
2023-01-23T23:01:53.315Z,102772.16
2023-01-23T23:07:16.275Z,102776.88
2023-01-23T23:12:38.180Z,102768.41
2023-01-23T23:18:00.180Z,102775.69
2023-01-23T23:23:22.058Z,102783.09
2023-01-23T23:28:43.971Z,102767.31
2023-01-23T23:34:05.973Z,102779.22
2023-01-23T23:39:27.829Z,102775.75
2023-01-23T23:44:49.669Z,102765.88
2023-01-23T23:50:11.867Z,102768.16
2023-01-23T23:55:33.735Z,102765.50
